createdAt,value
2018-02-14T00:00:01.114Z,-4.71
2018-02-14T00:01:10.840Z,-4.65
2018-02-14T00:02:20.826Z,-4.62
2018-02-14T00:03:30.548Z,-4.61
2018-02-14T00:04:40.002Z,-4.62
2018-02-14T00:05:49.193Z,-4.56
2018-02-14T00:06:58.380Z,-4.61
2018-02-14T00:08:07.296Z,-4.56
2018-02-14T00:09:16.757Z,-4.59
2018-02-14T00:10:26.209Z,-4.55
2018-02-14T00:11:35.925Z,-4.53
2018-02-14T00:12:46.053Z,-4.55
2018-02-14T00:13:55.764Z,-4.53
2018-02-14T00:15:05.486Z,-4.55
2018-02-14T00:16:14.940Z,-4.56
2018-02-14T00:17:24.923Z,-4.59
2018-02-14T00:18:34.905Z,-4.53
2018-02-14T00:19:44.889Z,-4.73
2018-02-14T00:20:54.604Z,-4.74
2018-02-14T00:22:04.054Z,-4.65
2018-02-14T00:23:13.774Z,-4.65
2018-02-14T00:24:23.758Z,-4.67
2018-02-14T00:25:33.743Z,-4.77
2018-02-14T00:26:43.723Z,-4.7
2018-02-14T00:27:53.711Z,-4.74
2018-02-14T00:29:03.724Z,-4.74
2018-02-14T00:30:13.210Z,-4.71
2018-02-14T00:31:22.927Z,-4.77
2018-02-14T00:32:32.378Z,-4.7
2018-02-14T00:33:42.389Z,-4.69
2018-02-14T00:34:51.844Z,-4.8
2018-02-14T00:36:01.131Z,-4.79
2018-02-14T00:37:10.055Z,-4.83
2018-02-14T00:38:19.246Z,-4.87
2018-02-14T00:39:28.702Z,-4.84
2018-02-14T00:40:37.622Z,-4.77
2018-02-14T00:41:47.069Z,-4.83
2018-02-14T00:42:56.526Z,-4.79
2018-02-14T00:44:05.976Z,-4.74
2018-02-14T00:45:14.896Z,-4.77
2018-02-14T00:46:24.077Z,-4.65
2018-02-14T00:47:33.269Z,-4.61
2018-02-14T00:48:42.459Z,-4.55
2018-02-14T00:49:51.375Z,-4.53
2018-02-14T00:51:00.290Z,-4.61
2018-02-14T00:52:09.207Z,-4.65
2018-02-14T00:53:18.386Z,-4.58
2018-02-14T00:54:27.574Z,-4.62
2018-02-14T00:55:37.027Z,-4.52
2018-02-14T00:56:46.479Z,-4.51
2018-02-14T00:57:55.666Z,-4.56
2018-02-14T00:59:05.478Z,-4.53
2018-02-14T01:00:15.461Z,-4.52
2018-02-14T01:01:25.173Z,-4.53
2018-02-14T01:02:34.623Z,-4.44
2018-02-14T01:03:44.614Z,-4.58
2018-02-14T01:04:54.332Z,-4.44
2018-02-14T01:06:04.051Z,-4.51
2018-02-14T01:07:13.771Z,-4.59
2018-02-14T01:08:23.485Z,-4.51
2018-02-14T01:09:32.936Z,-4.56
2018-02-14T01:10:42.437Z,-4.62
2018-02-14T01:11:52.153Z,-4.53
2018-02-14T01:13:01.651Z,-4.59
2018-02-14T01:14:10.837Z,-4.58
2018-02-14T01:15:20.819Z,-4.59
2018-02-14T01:16:30.801Z,-4.58
2018-02-14T01:17:40.782Z,-4.59
2018-02-14T01:18:50.765Z,-4.59
2018-02-14T01:20:00.714Z,-4.59
2018-02-14T01:21:09.895Z,-4.59
2018-02-14T01:22:19.610Z,-4.63
2018-02-14T01:23:29.594Z,-4.58
2018-02-14T01:24:39.578Z,-4.58
2018-02-14T01:25:49.029Z,-4.63
2018-02-14T01:26:58.775Z,-4.7
2018-02-14T01:28:08.273Z,-4.76
2018-02-14T01:29:17.996Z,-4.8
2018-02-14T01:30:27.981Z,-4.83
2018-02-14T01:31:37.433Z,-4.84
2018-02-14T01:32:47.149Z,-4.91
2018-02-14T01:33:57.129Z,-4.95
2018-02-14T01:35:06.580Z,-4.97
2018-02-14T01:36:16.300Z,-5.01
2018-02-14T01:37:26.284Z,-4.94
2018-02-14T01:38:35.997Z,-4.94
2018-02-14T01:39:45.708Z,-4.9
2018-02-14T01:40:55.687Z,-4.92
2018-02-14T01:42:05.406Z,-4.94
2018-02-14T01:43:15.390Z,-4.95
2018-02-14T01:44:25.121Z,-4.92
2018-02-14T01:45:34.936Z,-4.94
2018-02-14T01:46:44.659Z,-4.92
2018-02-14T01:47:54.374Z,-4.92
2018-02-14T01:49:04.094Z,-4.92
2018-02-14T01:50:13.818Z,-4.88
2018-02-14T01:51:23.541Z,-4.8
2018-02-14T01:52:33.260Z,-4.84
2018-02-14T01:53:42.971Z,-4.8
2018-02-14T01:54:52.422Z,-4.81
2018-02-14T01:56:02.411Z,-4.87
2018-02-14T01:57:11.601Z,-4.88
2018-02-14T01:58:21.321Z,-4.84
2018-02-14T01:59:31.301Z,-4.88
2018-02-14T02:00:41.022Z,-4.79
2018-02-14T02:01:51.000Z,-4.71
2018-02-14T02:03:00.979Z,-4.76
2018-02-14T02:04:10.960Z,-4.77
2018-02-14T02:05:20.936Z,-4.65
2018-02-14T02:06:30.656Z,-4.55
2018-02-14T02:07:40.105Z,-4.59
2018-02-14T02:08:50.122Z,-4.58
2018-02-14T02:10:00.167Z,-4.73
2018-02-14T02:11:10.179Z,-4.69
2018-02-14T02:12:20.161Z,-4.74
2018-02-14T02:13:29.638Z,-4.81
2018-02-14T02:14:39.406Z,-4.77
2018-02-14T02:15:49.126Z,-4.88
2018-02-14T02:16:59.111Z,-4.84
2018-02-14T02:18:08.826Z,-4.97
2018-02-14T02:19:18.301Z,-4.9
2018-02-14T02:20:28.285Z,-4.84
2018-02-14T02:21:37.739Z,-4.94
2018-02-14T02:22:47.716Z,-4.9
2018-02-14T02:23:57.434Z,-4.94
2018-02-14T02:25:07.423Z,-4.97
2018-02-14T02:26:17.503Z,-4.94
2018-02-14T02:27:26.954Z,-5
2018-02-14T02:28:36.667Z,-5.12
2018-02-14T02:29:46.652Z,-5.1
2018-02-14T02:30:56.104Z,-5.01
2018-02-14T02:32:06.093Z,-5.01
2018-02-14T02:33:15.825Z,-4.98
2018-02-14T02:34:25.554Z,-5.09
2018-02-14T02:35:35.562Z,-5.05
2018-02-14T02:36:45.025Z,-5.05
2018-02-14T02:37:54.752Z,-4.88
2018-02-14T02:39:04.480Z,-5.05
2018-02-14T02:40:14.468Z,-5.05
2018-02-14T02:41:24.453Z,-4.9
2018-02-14T02:42:33.897Z,-4.88
2018-02-14T02:43:43.672Z,-4.81
2018-02-14T02:44:53.391Z,-4.84
2018-02-14T02:46:03.384Z,-4.8
2018-02-14T02:47:13.105Z,-4.88
2018-02-14T02:48:22.562Z,-4.94
2018-02-14T02:49:32.287Z,-4.95
2018-02-14T02:50:42.004Z,-5.08
2018-02-14T02:51:51.990Z,-5.06
2018-02-14T02:53:01.715Z,-5.01
2018-02-14T02:54:11.695Z,-5.12
2018-02-14T02:55:21.732Z,-5.1
2018-02-14T02:56:31.187Z,-5.05
2018-02-14T02:57:40.906Z,-5.12
2018-02-14T02:58:50.632Z,-5.06
2018-02-14T03:00:00.361Z,-5.13
2018-02-14T03:01:09.544Z,-5.2
2018-02-14T03:02:19.286Z,-5.2
2018-02-14T03:03:29.271Z,-5.1
2018-02-14T03:04:39.247Z,-5.19
2018-02-14T03:05:49.227Z,-5.19
2018-02-14T03:06:59.327Z,-5.13
2018-02-14T03:08:09.313Z,-5.2
2018-02-14T03:09:18.768Z,-5.09
2018-02-14T03:10:28.752Z,-5.12
2018-02-14T03:11:38.736Z,-5.12
2018-02-14T03:12:48.723Z,-5.12
2018-02-14T03:13:58.707Z,-5.09
2018-02-14T03:15:08.692Z,-5.05
2018-02-14T03:16:18.405Z,-5.17
2018-02-14T03:17:28.387Z,-5.16
2018-02-14T03:18:38.369Z,-5.17
2018-02-14T03:19:48.088Z,-5.09
2018-02-14T03:20:57.807Z,-5.2
2018-02-14T03:22:07.795Z,-5.19
2018-02-14T03:23:17.785Z,-5.16
2018-02-14T03:24:27.763Z,-5.19
2018-02-14T03:25:37.481Z,-5.21
2018-02-14T03:26:47.460Z,-5.17
2018-02-14T03:27:57.443Z,-5.2
2018-02-14T03:29:07.156Z,-5.2
2018-02-14T03:30:16.879Z,-5.23
2018-02-14T03:31:26.615Z,-5.19
2018-02-14T03:32:36.335Z,-5.19
2018-02-14T03:33:45.787Z,-5.12
2018-02-14T03:34:55.246Z,-5.13
2018-02-14T03:36:05.055Z,-5.06
2018-02-14T03:37:15.034Z,-5.12
2018-02-14T03:38:24.484Z,-5.1
2018-02-14T03:39:34.463Z,-5.13
2018-02-14T03:40:44.180Z,-5.12
2018-02-14T03:41:53.628Z,-5.09
2018-02-14T03:43:03.650Z,-5.2
2018-02-14T03:44:13.371Z,-5.13
2018-02-14T03:45:23.350Z,-4.98
2018-02-14T03:46:33.329Z,-5.08
2018-02-14T03:47:43.047Z,-4.92
2018-02-14T03:48:53.028Z,-5
2018-02-14T03:50:02.744Z,-4.87
2018-02-14T03:51:12.455Z,-4.91
2018-02-14T03:52:22.176Z,-4.92
2018-02-14T03:53:31.996Z,-4.98
2018-02-14T03:54:41.710Z,-4.94
2018-02-14T03:55:51.685Z,-4.92
2018-02-14T03:57:01.663Z,-5
2018-02-14T03:58:11.388Z,-4.91
2018-02-14T03:59:21.373Z,-4.92
2018-02-14T04:03:26.683Z,-5.1
2018-02-14T04:04:36.659Z,-5.16
2018-02-14T04:05:46.638Z,-5.2
2018-02-14T04:06:56.619Z,-5.21
2018-02-14T04:08:06.075Z,-5.27
2018-02-14T04:09:16.061Z,-5.31
2018-02-14T04:10:25.563Z,-5.25
2018-02-14T04:11:35.546Z,-5.23
2018-02-14T04:12:45.529Z,-5.23
2018-02-14T04:13:55.527Z,-5.19
2018-02-14T04:15:05.517Z,-5.19
2018-02-14T04:16:15.499Z,-5.23
2018-02-14T04:17:25.269Z,-5.16
2018-02-14T04:18:35.253Z,-5.1
2018-02-14T04:19:44.967Z,-5.19
2018-02-14T04:20:54.954Z,-5.12
2018-02-14T04:22:04.938Z,-5.13
2018-02-14T04:23:14.660Z,-5.12
2018-02-14T04:24:24.120Z,-5.08
2018-02-14T04:25:34.106Z,-5.08
2018-02-14T04:26:43.557Z,-5.12
2018-02-14T04:27:53.371Z,-5.06
2018-02-14T04:29:03.088Z,-5.05
2018-02-14T04:30:13.073Z,-4.97
2018-02-14T04:31:22.793Z,-5.05
2018-02-14T04:32:32.512Z,-4.95
2018-02-14T04:33:42.488Z,-4.91
2018-02-14T04:34:52.466Z,-4.84
2018-02-14T04:36:02.449Z,-4.79
2018-02-14T04:37:12.431Z,-4.79
2018-02-14T04:38:22.417Z,-4.62
2018-02-14T04:39:31.968Z,-4.59
2018-02-14T04:40:41.684Z,-4.56
2018-02-14T04:41:51.662Z,-4.58
2018-02-14T04:43:01.388Z,-4.44
2018-02-14T04:44:10.574Z,-4.42
2018-02-14T04:45:20.294Z,-4.38
2018-02-14T04:46:30.274Z,-4.24
2018-02-14T04:47:39.991Z,-4.33
2018-02-14T04:48:49.708Z,-4.2
2018-02-14T04:49:59.449Z,-4.14
2018-02-14T04:51:09.430Z,-4.2
2018-02-14T04:52:19.149Z,-4.13
2018-02-14T04:53:28.864Z,-4.17
2018-02-14T04:54:38.319Z,-4.13
2018-02-14T04:55:48.298Z,-4.04
2018-02-14T04:56:57.753Z,-4.05
2018-02-14T04:58:07.470Z,-4.04
2018-02-14T04:59:17.184Z,-4.02
2018-02-14T05:00:27.164Z,-3.98
2018-02-14T05:01:37.144Z,-3.99
2018-02-14T05:02:47.128Z,-3.9
2018-02-14T05:03:56.849Z,-4.02
2018-02-14T05:05:06.302Z,-3.84
2018-02-14T05:06:15.748Z,-3.94
2018-02-14T05:07:25.738Z,-3.75
2018-02-14T05:08:35.727Z,-3.78
2018-02-14T05:09:45.448Z,-3.68
2018-02-14T05:10:54.987Z,-3.64
2018-02-14T05:12:04.706Z,-3.61
2018-02-14T05:13:14.425Z,-3.68
2018-02-14T05:14:24.140Z,-3.69
2018-02-14T05:15:33.889Z,-3.74
2018-02-14T05:16:43.874Z,-3.71
2018-02-14T05:17:53.848Z,-3.71
2018-02-14T05:19:03.844Z,-3.65
2018-02-14T05:20:14.003Z,-3.56
2018-02-14T05:21:23.724Z,-3.55
2018-02-14T05:22:33.714Z,-3.62
2018-02-14T05:23:43.431Z,-3.55
2018-02-14T05:24:53.414Z,-3.51
2018-02-14T05:26:03.145Z,-3.58
2018-02-14T05:27:13.129Z,-3.43
2018-02-14T05:28:23.112Z,-3.47
2018-02-14T05:29:32.565Z,-3.41
2018-02-14T05:30:42.296Z,-3.43
2018-02-14T05:31:52.289Z,-3.44
2018-02-14T05:33:02.277Z,-3.37
2018-02-14T05:34:12.257Z,-3.41
2018-02-14T05:35:21.977Z,-3.41
2018-02-14T05:36:31.695Z,-3.25
2018-02-14T05:37:41.495Z,-3.19
2018-02-14T05:38:51.212Z,-3.17
2018-02-14T05:40:01.198Z,-2.99
2018-02-14T05:41:10.652Z,-2.94
2018-02-14T05:42:20.375Z,-2.81
2018-02-14T05:43:30.353Z,-2.72
2018-02-14T05:44:40.076Z,-2.63
2018-02-14T05:45:49.804Z,-2.55
2018-02-14T05:46:59.521Z,-2.51
2018-02-14T05:48:08.983Z,-2.42
2018-02-14T05:49:19.028Z,-2.33
2018-02-14T05:50:28.481Z,-2.18
2018-02-14T05:51:38.203Z,-2.15
2018-02-14T05:52:47.924Z,-2
2018-02-14T05:53:57.112Z,-1.99
2018-02-14T05:55:07.099Z,-1.9
2018-02-14T05:56:16.546Z,-1.84
2018-02-14T05:57:25.998Z,-1.74
2018-02-14T05:58:35.753Z,-1.68
2018-02-14T05:59:45.472Z,-1.54
2018-02-14T06:00:55.509Z,-1.39
2018-02-14T06:02:05.226Z,-1.4
2018-02-14T06:03:14.954Z,-1.42
2018-02-14T06:04:24.939Z,-1.5
2018-02-14T06:05:34.126Z,-1.68
2018-02-14T06:06:44.110Z,-1.69
2018-02-14T06:07:54.093Z,-1.76
2018-02-14T06:09:04.077Z,-1.79
2018-02-14T06:10:14.066Z,-1.97
2018-02-14T06:11:24.049Z,-1.99
2018-02-14T06:12:34.135Z,-2
2018-02-14T06:13:44.132Z,-2.05
2018-02-14T06:14:53.865Z,-2.08
2018-02-14T06:16:03.853Z,-2.1
2018-02-14T06:17:13.842Z,-1.87
2018-02-14T06:18:23.827Z,-1.78
2018-02-14T06:19:33.018Z,-1.6
2018-02-14T06:20:42.739Z,-1.39
2018-02-14T06:21:52.457Z,-1.22
2018-02-14T06:23:02.521Z,-1.09
2018-02-14T06:24:12.509Z,-0.89
2018-02-14T06:25:22.493Z,-0.78
2018-02-14T06:26:32.514Z,-0.67
2018-02-14T06:27:42.501Z,-0.49
2018-02-14T06:28:52.222Z,-0.46
2018-02-14T06:30:01.944Z,-0.41
2018-02-14T06:31:11.931Z,-0.39
2018-02-14T06:32:21.669Z,-0.36
2018-02-14T06:33:31.393Z,-0.2
2018-02-14T06:34:41.116Z,-0.21
2018-02-14T06:35:51.103Z,-0.18
2018-02-14T06:37:00.556Z,-0.12
2018-02-14T06:38:10.008Z,-0.13
2018-02-14T06:39:19.996Z,-0.06
2018-02-14T06:40:29.454Z,-0.03
2018-02-14T06:41:38.960Z,-0.12
2018-02-14T06:42:48.678Z,0.05
2018-02-14T06:43:58.397Z,0.02
2018-02-14T06:45:08.383Z,0.09
2018-02-14T06:46:18.371Z,0.08
2018-02-14T06:47:28.357Z,0.05
2018-02-14T06:48:38.346Z,0.08
2018-02-14T06:49:48.061Z,-0.02
2018-02-14T06:50:57.518Z,0.12
2018-02-14T06:52:07.242Z,-0.03
2018-02-14T06:53:16.738Z,0.01
2018-02-14T06:54:26.205Z,0
2018-02-14T06:55:36.197Z,0.02
2018-02-14T06:56:45.916Z,0.08
2018-02-14T06:57:55.635Z,-0.03
2018-02-14T06:59:05.623Z,-0.02
2018-02-14T07:00:15.346Z,0
2018-02-14T07:01:25.339Z,0.06
2018-02-14T07:02:35.323Z,0.05
2018-02-14T07:03:45.048Z,0.05
2018-02-14T07:04:55.132Z,0.12
2018-02-14T07:06:04.327Z,0.13
2018-02-14T07:07:14.045Z,0.12
2018-02-14T07:08:24.042Z,0.29
2018-02-14T07:09:33.764Z,0.33
2018-02-14T07:10:43.758Z,0.34
2018-02-14T07:11:53.788Z,0.42
2018-02-14T07:13:03.509Z,0.34
2018-02-14T07:14:13.499Z,0.47
2018-02-14T07:15:22.954Z,0.34
2018-02-14T07:16:32.934Z,0.47
2018-02-14T07:17:42.919Z,0.51
2018-02-14T07:18:52.913Z,0.55
2018-02-14T07:20:02.637Z,0.56
2018-02-14T07:21:11.826Z,0.61
2018-02-14T07:22:21.548Z,0.61
2018-02-14T07:23:31.537Z,0.56
2018-02-14T07:24:41.260Z,0.55
2018-02-14T07:25:50.982Z,0.67
2018-02-14T07:27:00.964Z,0.68
2018-02-14T07:28:10.793Z,0.76
2018-02-14T07:29:20.529Z,0.68
2018-02-14T07:30:30.260Z,0.64
2018-02-14T07:31:40.249Z,0.67
2018-02-14T07:32:49.974Z,0.81
2018-02-14T07:33:59.167Z,0.78
2018-02-14T07:35:09.165Z,0.77
2018-02-14T07:36:18.610Z,0.84
2018-02-14T07:37:28.332Z,0.88
2018-02-14T07:38:38.049Z,0.78
2018-02-14T07:39:48.334Z,0.85
2018-02-14T07:40:58.057Z,0.91
2018-02-14T07:42:08.047Z,0.85
2018-02-14T07:43:17.765Z,0.92
2018-02-14T07:44:27.223Z,0.94
2018-02-14T07:45:37.261Z,0.94
2018-02-14T07:46:47.022Z,0.86
2018-02-14T07:47:57.009Z,0.94
2018-02-14T07:49:06.729Z,0.82
2018-02-14T07:50:16.713Z,0.91
2018-02-14T07:51:26.695Z,0.81
2018-02-14T07:52:36.157Z,0.82
2018-02-14T07:53:45.880Z,0.84
2018-02-14T07:54:55.598Z,0.85
2018-02-14T07:56:05.589Z,0.84
2018-02-14T07:57:15.621Z,0.91
2018-02-14T07:58:25.071Z,0.95
2018-02-14T07:59:34.535Z,0.94
2018-02-14T08:00:44.525Z,0.95
2018-02-14T08:01:54.511Z,0.95
2018-02-14T08:03:04.231Z,1.03
2018-02-14T08:04:13.956Z,1.04
2018-02-14T08:05:23.677Z,1.09
2018-02-14T08:06:33.662Z,1.09
2018-02-14T08:07:43.659Z,1.12
2018-02-14T08:08:53.696Z,1.22
2018-02-14T08:10:03.415Z,1.14
2018-02-14T08:11:13.140Z,1.2
2018-02-14T08:12:23.131Z,1.18
2018-02-14T08:13:32.854Z,1.21
2018-02-14T08:14:42.975Z,1.25
2018-02-14T08:15:52.980Z,1.25
2018-02-14T08:17:03.040Z,1.24
2018-02-14T08:18:12.835Z,1.28
2018-02-14T08:19:22.830Z,1.25
2018-02-14T08:20:32.387Z,1.25
2018-02-14T08:21:41.843Z,1.31
2018-02-14T08:22:51.878Z,1.42
2018-02-14T08:24:01.071Z,1.38
2018-02-14T08:25:10.532Z,1.36
2018-02-14T08:26:20.256Z,1.46
2018-02-14T08:27:29.973Z,1.38
2018-02-14T08:28:39.691Z,1.38
2018-02-14T08:29:49.689Z,1.32
2018-02-14T08:30:59.411Z,1.36
2018-02-14T08:32:09.401Z,1.38
2018-02-14T08:33:19.126Z,1.34
2018-02-14T08:34:28.580Z,1.38
2018-02-14T08:35:38.470Z,1.38
2018-02-14T08:36:49.737Z,1.32
2018-02-14T08:37:59.915Z,1.3
2018-02-14T08:39:09.785Z,1.31
2018-02-14T08:40:20.366Z,1.36
2018-02-14T08:41:31.522Z,1.31
2018-02-14T08:42:41.172Z,1.34
2018-02-14T08:43:54.417Z,1.32
2018-02-14T08:45:04.943Z,1.32
2018-02-14T08:46:15.186Z,1.39
2018-02-14T08:47:25.174Z,1.43
2018-02-14T08:48:34.928Z,1.4
2018-02-14T08:49:44.941Z,1.43
2018-02-14T08:50:54.399Z,1.48
2018-02-14T08:52:04.388Z,1.5
2018-02-14T08:53:14.375Z,1.57
2018-02-14T08:54:24.103Z,1.58
2018-02-14T08:55:34.121Z,1.57
2018-02-14T08:56:44.109Z,1.6
2018-02-14T08:57:53.828Z,1.66
2018-02-14T08:59:03.285Z,1.64
2018-02-14T09:00:13.006Z,1.7
2018-02-14T09:01:22.460Z,1.66
2018-02-14T09:02:32.446Z,1.63
2018-02-14T09:03:41.902Z,1.61
2018-02-14T09:04:51.618Z,1.67
2018-02-14T09:06:00.811Z,1.76
2018-02-14T09:07:10.580Z,1.68
2018-02-14T09:08:20.569Z,1.84
2018-02-14T09:09:30.031Z,1.85
2018-02-14T09:10:39.751Z,1.93
2018-02-14T09:11:49.479Z,1.84
2018-02-14T09:12:59.463Z,1.88
2018-02-14T09:14:09.185Z,1.89
2018-02-14T09:15:18.638Z,1.89
2018-02-14T09:16:28.622Z,1.93
2018-02-14T09:17:38.343Z,1.97
2018-02-14T09:18:48.056Z,2.01
2018-02-14T09:19:58.051Z,1.98
2018-02-14T09:21:07.513Z,2.05
2018-02-14T09:22:17.496Z,2.03
2018-02-14T09:23:26.687Z,2.03
2018-02-14T09:24:36.671Z,2.01
2018-02-14T09:25:46.426Z,2.1
2018-02-14T09:26:56.449Z,2.15
2018-02-14T09:28:05.920Z,2.21
2018-02-14T09:29:15.640Z,2.14
2018-02-14T09:30:25.149Z,2.21
2018-02-14T09:31:34.867Z,2.18
2018-02-14T09:32:44.584Z,2.21
2018-02-14T09:33:54.303Z,2.18
2018-02-14T09:35:04.293Z,2.34
2018-02-14T09:36:13.744Z,2.36
2018-02-14T09:37:23.545Z,2.32
2018-02-14T09:38:33.348Z,2.32
2018-02-14T09:39:43.067Z,2.3
2018-02-14T09:40:52.786Z,2.36
2018-02-14T09:42:02.612Z,2.4
2018-02-14T09:43:12.334Z,2.33
2018-02-14T09:44:22.326Z,2.37
2018-02-14T09:45:32.311Z,2.36
2018-02-14T09:46:42.070Z,2.39
2018-02-14T09:47:51.790Z,2.33
2018-02-14T09:49:01.515Z,2.4
2018-02-14T09:50:10.983Z,2.44
2018-02-14T09:51:20.440Z,2.5
2018-02-14T09:52:30.429Z,2.51
2018-02-14T09:53:40.409Z,2.44
2018-02-14T09:54:50.400Z,2.46
2018-02-14T09:56:00.392Z,2.43
2018-02-14T09:57:10.389Z,2.37
2018-02-14T09:58:19.847Z,2.37
2018-02-14T09:59:29.306Z,2.36
2018-02-14T10:00:39.028Z,2.32
2018-02-14T10:01:48.752Z,2.37
2018-02-14T10:02:58.480Z,2.44
2018-02-14T10:04:08.216Z,2.44
2018-02-14T10:05:18.204Z,2.55
2018-02-14T10:06:27.928Z,2.5
2018-02-14T10:07:37.696Z,2.46
2018-02-14T10:08:47.432Z,2.47
2018-02-14T10:09:57.155Z,2.34
2018-02-14T10:11:07.158Z,2.43
2018-02-14T10:12:16.674Z,2.43
2018-02-14T10:13:26.668Z,2.33
2018-02-14T10:14:36.660Z,2.39
2018-02-14T10:15:46.388Z,2.37
2018-02-14T10:16:56.418Z,2.4
2018-02-14T10:18:06.487Z,2.43
2018-02-14T10:19:16.211Z,2.36
2018-02-14T10:20:25.562Z,2.32
2018-02-14T10:21:35.528Z,2.28
2018-02-14T10:22:45.396Z,2.26
2018-02-14T10:23:55.649Z,2.16
2018-02-14T10:25:05.595Z,2.16
2018-02-14T10:26:15.674Z,2.21
2018-02-14T10:27:25.819Z,2.14
2018-02-14T10:28:35.330Z,2.22
2018-02-14T10:29:45.318Z,2.23
2018-02-14T10:30:55.950Z,2.23
2018-02-14T10:32:05.682Z,2.18
2018-02-14T10:33:15.420Z,2.21
2018-02-14T10:34:25.178Z,2.32
2018-02-14T10:35:34.674Z,2.36
2018-02-14T10:36:44.680Z,2.33
2018-02-14T10:37:54.424Z,2.34
2018-02-14T10:39:04.152Z,2.34
2018-02-14T10:40:14.266Z,2.41
2018-02-14T10:41:24.317Z,2.37
2018-02-14T10:42:34.329Z,2.5
2018-02-14T10:43:44.062Z,2.43
2018-02-14T10:44:54.051Z,2.5
2018-02-14T10:46:03.509Z,2.5
2018-02-14T10:47:13.501Z,2.51
2018-02-14T10:48:23.494Z,2.41
2018-02-14T10:49:33.491Z,2.51
2018-02-14T10:50:43.221Z,2.46
2018-02-14T10:51:52.951Z,2.51
2018-02-14T10:53:02.944Z,2.51
2018-02-14T10:54:12.938Z,2.5
2018-02-14T10:55:22.928Z,2.61
2018-02-14T10:56:32.653Z,2.62
2018-02-14T10:57:42.495Z,2.61
2018-02-14T10:58:51.957Z,2.61
2018-02-14T11:00:01.683Z,2.68
2018-02-14T11:01:11.451Z,2.62
2018-02-14T11:02:21.484Z,2.68
2018-02-14T11:03:31.533Z,2.65
2018-02-14T11:04:41.522Z,2.64
2018-02-14T11:05:50.987Z,2.64
2018-02-14T11:07:00.718Z,2.65
2018-02-14T11:08:10.175Z,2.77
2018-02-14T11:09:19.906Z,2.68
2018-02-14T11:10:29.894Z,2.76
2018-02-14T11:11:39.087Z,2.77
2018-02-14T11:12:48.541Z,2.77
2018-02-14T11:13:58.303Z,2.91
2018-02-14T11:15:07.499Z,2.91
2018-02-14T11:16:17.227Z,2.93
2018-02-14T11:17:26.950Z,2.87
2018-02-14T11:18:36.678Z,2.87
2018-02-14T11:19:46.403Z,2.75
2018-02-14T11:20:56.452Z,2.77
2018-02-14T11:22:05.914Z,2.76
2018-02-14T11:23:15.109Z,2.79
2018-02-14T11:24:24.834Z,2.77
2018-02-14T11:25:34.300Z,2.7
2018-02-14T11:26:44.024Z,2.62
2018-02-14T11:27:53.752Z,2.7
2018-02-14T11:29:03.747Z,2.73
2018-02-14T11:30:13.205Z,2.65
2018-02-14T11:31:23.192Z,2.58
2018-02-14T11:32:32.659Z,2.7
2018-02-14T11:33:42.652Z,2.65
2018-02-14T11:34:52.636Z,2.69
2018-02-14T11:36:02.620Z,2.58
2018-02-14T11:37:12.346Z,2.68
2018-02-14T11:38:22.333Z,2.68
2018-02-14T11:39:32.054Z,2.69
2018-02-14T11:40:41.505Z,2.7
2018-02-14T11:41:51.230Z,2.7
2018-02-14T11:43:00.961Z,2.69
2018-02-14T11:44:10.961Z,2.62
2018-02-14T11:45:20.153Z,2.61
2018-02-14T11:46:30.144Z,2.69
2018-02-14T11:47:40.128Z,2.65
2018-02-14T11:48:49.854Z,2.72
2018-02-14T11:49:59.576Z,2.62
2018-02-14T11:51:09.336Z,2.65
2018-02-14T11:52:19.324Z,2.64
2018-02-14T11:53:29.111Z,2.65
2018-02-14T11:54:38.838Z,2.73
2018-02-14T11:55:48.825Z,2.73
2018-02-14T11:56:58.811Z,2.7
2018-02-14T11:58:08.808Z,2.73
2018-02-14T11:59:18.806Z,2.73
2018-02-14T12:00:28.805Z,2.88
2018-02-14T12:01:38.801Z,2.87
2018-02-14T12:02:48.262Z,2.87
2018-02-14T12:03:58.250Z,2.95
2018-02-14T12:05:07.449Z,2.97
2018-02-14T12:06:16.977Z,2.98
2018-02-14T12:07:26.603Z,2.88
2018-02-14T12:08:36.590Z,2.9
2018-02-14T12:09:46.579Z,2.95
2018-02-14T12:10:56.039Z,2.94
2018-02-14T12:12:05.505Z,3
2018-02-14T12:13:15.550Z,3.08
2018-02-14T12:14:25.541Z,3
2018-02-14T12:15:35.264Z,3.03
2018-02-14T12:16:45.253Z,3.03
2018-02-14T12:17:55.240Z,3.09
2018-02-14T12:19:04.965Z,2.94
2018-02-14T12:20:14.961Z,3.05
2018-02-14T12:21:24.970Z,2.94
2018-02-14T12:22:34.695Z,2.93
2018-02-14T12:23:44.689Z,2.83
2018-02-14T12:24:54.417Z,2.91
2018-02-14T12:26:03.878Z,2.87
2018-02-14T12:27:13.598Z,2.79
2018-02-14T12:28:23.591Z,2.77
2018-02-14T12:29:33.048Z,2.73
2018-02-14T12:30:43.070Z,2.76
2018-02-14T12:31:53.060Z,2.75
2018-02-14T12:33:03.052Z,2.68
2018-02-14T12:34:12.248Z,2.73
2018-02-14T12:35:21.440Z,2.69
2018-02-14T12:36:31.209Z,2.75
2018-02-14T12:37:40.662Z,2.61
2018-02-14T12:38:50.117Z,2.68
2018-02-14T12:39:59.837Z,2.62
2018-02-14T12:41:09.562Z,2.64
2018-02-14T12:42:19.563Z,2.62
2018-02-14T12:43:29.293Z,2.64
2018-02-14T12:44:39.019Z,2.65
2018-02-14T12:45:49.056Z,2.73
2018-02-14T12:46:58.515Z,2.72
2018-02-14T12:48:08.286Z,2.88
2018-02-14T12:49:18.319Z,2.91
2018-02-14T12:50:28.318Z,2.9
2018-02-14T12:51:38.037Z,2.97
2018-02-14T12:52:47.763Z,3
2018-02-14T12:53:57.757Z,2.88
2018-02-14T12:55:06.955Z,2.91
2018-02-14T12:56:16.730Z,2.8
2018-02-14T12:57:26.720Z,2.75
2018-02-14T12:58:36.446Z,2.73
2018-02-14T12:59:45.638Z,2.73
2018-02-14T13:00:55.098Z,2.75
2018-02-14T13:02:04.824Z,2.62
2018-02-14T13:03:14.282Z,2.62
2018-02-14T13:04:24.006Z,2.61
2018-02-14T13:05:33.728Z,2.64
2018-02-14T13:06:43.184Z,2.64
2018-02-14T13:07:53.178Z,2.62
2018-02-14T13:09:03.171Z,2.58
2018-02-14T13:10:12.895Z,2.47
2018-02-14T13:11:22.353Z,2.51
2018-02-14T13:12:32.075Z,2.46
2018-02-14T13:13:42.058Z,2.52
2018-02-14T13:14:52.047Z,2.5
2018-02-14T13:16:02.039Z,2.58
2018-02-14T13:17:11.768Z,2.57
2018-02-14T13:18:21.756Z,2.51
2018-02-14T13:19:31.482Z,2.52
2018-02-14T13:20:41.468Z,2.52
2018-02-14T13:21:51.233Z,2.57
2018-02-14T13:23:01.054Z,2.52
2018-02-14T13:24:10.782Z,2.61
2018-02-14T13:25:20.504Z,2.62
2018-02-14T13:26:30.229Z,2.52
2018-02-14T13:27:40.220Z,2.55
2018-02-14T13:28:50.214Z,2.51
2018-02-14T13:30:00.206Z,2.54
2018-02-14T13:31:09.937Z,2.52
2018-02-14T13:32:19.661Z,2.51
2018-02-14T13:33:29.654Z,2.36
2018-02-14T13:34:39.665Z,2.39
2018-02-14T13:35:49.649Z,2.41
2018-02-14T13:36:58.947Z,2.3
2018-02-14T13:38:08.407Z,2.26
2018-02-14T13:39:18.403Z,2.19
2018-02-14T13:40:28.496Z,2.26
2018-02-14T13:41:38.635Z,2.14
2018-02-14T13:42:48.616Z,2.15
2018-02-14T13:43:58.073Z,2.16
2018-02-14T13:45:07.794Z,2.1
2018-02-14T13:46:17.832Z,2.18
2018-02-14T13:47:27.295Z,2.04
2018-02-14T13:48:36.755Z,2.16
2018-02-14T13:49:46.483Z,2.21
2018-02-14T13:50:56.205Z,2.19
2018-02-14T13:52:05.663Z,2.18
2018-02-14T13:53:15.654Z,2.22
2018-02-14T13:54:25.108Z,2.19
2018-02-14T13:55:34.567Z,2.28
2018-02-14T13:56:44.288Z,2.26
2018-02-14T13:57:54.274Z,2.33
2018-02-14T13:59:03.999Z,2.25
2018-02-14T14:00:14.000Z,2.19
2018-02-14T14:01:24.062Z,2.19
2018-02-14T14:02:33.517Z,2.19
2018-02-14T14:03:43.242Z,2.18
2018-02-14T14:04:52.699Z,2.1
2018-02-14T14:06:01.626Z,2
2018-02-14T14:07:11.619Z,2.07
2018-02-14T14:08:21.340Z,2.04
2018-02-14T14:09:31.379Z,1.93
2018-02-14T14:10:40.833Z,1.98
2018-02-14T14:11:50.553Z,1.95
2018-02-14T14:13:00.277Z,2
2018-02-14T14:14:10.271Z,1.92
2018-02-14T14:15:19.992Z,2.04
2018-02-14T14:16:29.452Z,2.01
2018-02-14T14:17:39.176Z,2.14
2018-02-14T14:18:49.168Z,2.04
2018-02-14T14:19:58.889Z,2.01
2018-02-14T14:21:08.612Z,1.97
2018-02-14T14:22:18.345Z,2
2018-02-14T14:23:27.805Z,1.89
2018-02-14T14:24:37.261Z,1.86
2018-02-14T14:25:46.988Z,1.88
2018-02-14T14:26:56.178Z,1.88
2018-02-14T14:28:05.369Z,1.79
2018-02-14T14:29:15.361Z,1.75
2018-02-14T14:30:25.084Z,1.64
2018-02-14T14:31:34.547Z,1.71
2018-02-14T14:32:44.311Z,1.74
2018-02-14T14:33:54.036Z,1.67
2018-02-14T14:35:03.227Z,1.6
2018-02-14T14:36:12.952Z,1.63
2018-02-14T14:37:22.407Z,1.49
2018-02-14T14:38:32.231Z,1.52
2018-02-14T14:39:42.222Z,1.43
2018-02-14T14:40:52.208Z,1.34
2018-02-14T14:42:02.194Z,1.36
2018-02-14T14:43:11.963Z,1.34
2018-02-14T14:44:21.951Z,1.3
2018-02-14T14:45:31.676Z,1.32
2018-02-14T14:46:41.709Z,1.36
2018-02-14T14:47:51.707Z,1.31
2018-02-14T14:49:01.428Z,1.36
2018-02-14T14:50:10.620Z,1.24
2018-02-14T14:51:20.341Z,1.3
2018-02-14T14:52:30.334Z,1.2
2018-02-14T14:53:40.339Z,1.22
2018-02-14T14:54:50.365Z,1.21
2018-02-14T14:56:00.455Z,1.13
2018-02-14T14:57:10.180Z,1.24
2018-02-14T14:58:20.206Z,1.13
2018-02-14T14:59:29.396Z,1.21
2018-02-14T15:00:38.854Z,1.16
2018-02-14T15:01:48.844Z,1.21
2018-02-14T15:02:58.839Z,1.21
2018-02-14T15:04:08.566Z,1.14
2018-02-14T15:05:18.289Z,1.1
2018-02-14T15:06:28.013Z,1.21
2018-02-14T15:07:38.046Z,1.2
2018-02-14T15:08:48.037Z,1.21
2018-02-14T15:09:57.765Z,1.16
2018-02-14T15:11:07.500Z,1.18
2018-02-14T15:12:16.953Z,1.18
2018-02-14T15:13:26.684Z,1.14
2018-02-14T15:14:36.669Z,1.21
2018-02-14T15:15:46.396Z,1.25
2018-02-14T15:16:55.851Z,1.16
2018-02-14T15:18:05.579Z,1.14
2018-02-14T15:19:15.569Z,1.14
2018-02-14T15:20:25.550Z,1.24
2018-02-14T15:21:35.269Z,1.2